sensor_id;sensor_type;location;lat;lon;timestamp;P1;durP1;ratioP1;P2;durP2;ratioP2
39772;SDS011;25451;51.960;6.250;2023-05-14T00:00:49;10.02;;;6.45;;
39772;SDS011;25451;51.960;6.250;2023-05-14T00:03:14;10.63;;;6.40;;
39772;SDS011;25451;51.960;6.250;2023-05-14T00:05:39;11.07;;;6.13;;
39772;SDS011;25451;51.960;6.250;2023-05-14T00:08:05;9.97;;;6.13;;
39772;SDS011;25451;51.960;6.250;2023-05-14T00:10:30;11.50;;;6.27;;
39772;SDS011;25451;51.960;6.250;2023-05-14T00:12:55;12.53;;;6.40;;
39772;SDS011;25451;51.960;6.250;2023-05-14T00:15:21;15.27;;;6.97;;
39772;SDS011;25451;51.960;6.250;2023-05-14T00:17:46;13.77;;;7.20;;
39772;SDS011;25451;51.960;6.250;2023-05-14T00:20:12;8.93;;;6.33;;
39772;SDS011;25451;51.960;6.250;2023-05-14T00:22:37;10.87;;;7.30;;
39772;SDS011;25451;51.960;6.250;2023-05-14T00:25:05;13.05;;;6.68;;
39772;SDS011;25451;51.960;6.250;2023-05-14T00:27:31;12.85;;;6.53;;
39772;SDS011;25451;51.960;6.250;2023-05-14T00:29:56;10.10;;;6.90;;
39772;SDS011;25451;51.960;6.250;2023-05-14T00:32:22;11.57;;;7.13;;
39772;SDS011;25451;51.960;6.250;2023-05-14T00:34:48;10.40;;;7.00;;
39772;SDS011;25451;51.960;6.250;2023-05-14T00:37:13;12.52;;;7.53;;
39772;SDS011;25451;51.960;6.250;2023-05-14T00:39:38;10.23;;;7.57;;
39772;SDS011;25451;51.960;6.250;2023-05-14T00:42:03;14.33;;;8.20;;
39772;SDS011;25451;51.960;6.250;2023-05-14T00:44:29;11.60;;;7.70;;
39772;SDS011;25451;51.960;6.250;2023-05-14T00:46:54;12.23;;;7.90;;
39772;SDS011;25451;51.960;6.250;2023-05-14T00:49:20;11.40;;;7.57;;
39772;SDS011;25451;51.960;6.250;2023-05-14T00:51:45;12.20;;;7.40;;
39772;SDS011;25451;51.960;6.250;2023-05-14T00:54:12;13.43;;;7.97;;
39772;SDS011;25451;51.960;6.250;2023-05-14T00:56:39;12.00;;;8.00;;
39772;SDS011;25451;51.960;6.250;2023-05-14T00:59:04;13.47;;;8.10;;
39772;SDS011;25451;51.960;6.250;2023-05-14T01:01:30;12.87;;;7.67;;
39772;SDS011;25451;51.960;6.250;2023-05-14T01:03:55;12.63;;;7.50;;
39772;SDS011;25451;51.960;6.250;2023-05-14T01:11:28;11.20;;;7.47;;
39772;SDS011;25451;51.960;6.250;2023-05-14T01:16:49;12.20;;;7.32;;
39772;SDS011;25451;51.960;6.250;2023-05-14T01:19:24;18.38;;;7.85;;
39772;SDS011;25451;51.960;6.250;2023-05-14T01:21:55;13.88;;;8.07;;
39772;SDS011;25451;51.960;6.250;2023-05-14T01:24:21;12.77;;;7.60;;
39772;SDS011;25451;51.960;6.250;2023-05-14T01:26:46;12.90;;;7.70;;
39772;SDS011;25451;51.960;6.250;2023-05-14T01:29:13;14.70;;;7.33;;
39772;SDS011;25451;51.960;6.250;2023-05-14T01:31:44;11.70;;;7.57;;
39772;SDS011;25451;51.960;6.250;2023-05-14T01:34:11;13.48;;;7.80;;
39772;SDS011;25451;51.960;6.250;2023-05-14T01:36:38;12.93;;;8.07;;
39772;SDS011;25451;51.960;6.250;2023-05-14T01:39:05;13.77;;;7.60;;
39772;SDS011;25451;51.960;6.250;2023-05-14T01:41:33;13.98;;;8.15;;
39772;SDS011;25451;51.960;6.250;2023-05-14T01:44:00;13.95;;;7.80;;
39772;SDS011;25451;51.960;6.250;2023-05-14T01:46:31;11.65;;;7.65;;
39772;SDS011;25451;51.960;6.250;2023-05-14T01:48:56;13.15;;;7.60;;
39772;SDS011;25451;51.960;6.250;2023-05-14T01:51:22;13.90;;;7.50;;
39772;SDS011;25451;51.960;6.250;2023-05-14T01:53:47;12.00;;;7.53;;
39772;SDS011;25451;51.960;6.250;2023-05-14T01:56:12;11.07;;;7.23;;
39772;SDS011;25451;51.960;6.250;2023-05-14T01:58:38;12.03;;;7.33;;
39772;SDS011;25451;51.960;6.250;2023-05-14T02:01:03;15.37;;;8.20;;
39772;SDS011;25451;51.960;6.250;2023-05-14T02:03:28;13.23;;;7.30;;
39772;SDS011;25451;51.960;6.250;2023-05-14T02:05:54;15.17;;;7.90;;
39772;SDS011;25451;51.960;6.250;2023-05-14T02:08:19;12.75;;;7.93;;
39772;SDS011;25451;51.960;6.250;2023-05-14T02:10:45;14.67;;;7.70;;
39772;SDS011;25451;51.960;6.250;2023-05-14T02:13:10;11.10;;;7.37;;
39772;SDS011;25451;51.960;6.250;2023-05-14T02:15:36;14.57;;;7.32;;
39772;SDS011;25451;51.960;6.250;2023-05-14T02:18:02;12.55;;;7.75;;
39772;SDS011;25451;51.960;6.250;2023-05-14T02:20:27;13.33;;;8.03;;
39772;SDS011;25451;51.960;6.250;2023-05-14T02:22:52;15.95;;;8.40;;
39772;SDS011;25451;51.960;6.250;2023-05-14T02:25:18;13.97;;;7.67;;
39772;SDS011;25451;51.960;6.250;2023-05-14T02:27:43;14.17;;;7.93;;
39772;SDS011;25451;51.960;6.250;2023-05-14T02:30:09;13.93;;;8.10;;
39772;SDS011;25451;51.960;6.250;2023-05-14T02:32:35;11.13;;;7.20;;
39772;SDS011;25451;51.960;6.250;2023-05-14T02:35:00;13.50;;;7.47;;
39772;SDS011;25451;51.960;6.250;2023-05-14T02:37:25;11.33;;;7.43;;
39772;SDS011;25451;51.960;6.250;2023-05-14T02:39:50;13.10;;;7.73;;
39772;SDS011;25451;51.960;6.250;2023-05-14T02:42:17;13.55;;;7.68;;
39772;SDS011;25451;51.960;6.250;2023-05-14T02:44:42;13.13;;;7.63;;
39772;SDS011;25451;51.960;6.250;2023-05-14T02:47:07;14.47;;;7.47;;
39772;SDS011;25451;51.960;6.250;2023-05-14T02:49:33;18.30;;;7.80;;
39772;SDS011;25451;51.960;6.250;2023-05-14T02:51:58;13.10;;;7.60;;
39772;SDS011;25451;51.960;6.250;2023-05-14T02:54:24;13.32;;;7.55;;
39772;SDS011;25451;51.960;6.250;2023-05-14T02:56:50;14.77;;;7.45;;
39772;SDS011;25451;51.960;6.250;2023-05-14T02:59:15;12.33;;;7.13;;
39772;SDS011;25451;51.960;6.250;2023-05-14T03:01:40;12.40;;;7.27;;
39772;SDS011;25451;51.960;6.250;2023-05-14T03:04:06;14.00;;;7.30;;
39772;SDS011;25451;51.960;6.250;2023-05-14T03:06:31;13.43;;;8.00;;
39772;SDS011;25451;51.960;6.250;2023-05-14T03:08:57;12.68;;;7.55;;
39772;SDS011;25451;51.960;6.250;2023-05-14T03:11:22;11.93;;;7.13;;
39772;SDS011;25451;51.960;6.250;2023-05-14T03:13:47;14.27;;;7.30;;
39772;SDS011;25451;51.960;6.250;2023-05-14T03:16:13;12.23;;;7.53;;
39772;SDS011;25451;51.960;6.250;2023-05-14T03:18:38;15.23;;;7.87;;
39772;SDS011;25451;51.960;6.250;2023-05-14T03:21:03;13.80;;;7.37;;
39772;SDS011;25451;51.960;6.250;2023-05-14T03:23:29;14.23;;;7.87;;
39772;SDS011;25451;51.960;6.250;2023-05-14T03:25:56;11.05;;;7.10;;
39772;SDS011;25451;51.960;6.250;2023-05-14T03:28:21;11.10;;;7.13;;
39772;SDS011;25451;51.960;6.250;2023-05-14T03:30:46;13.77;;;7.47;;
39772;SDS011;25451;51.960;6.250;2023-05-14T03:33:12;12.80;;;7.55;;
39772;SDS011;25451;51.960;6.250;2023-05-14T03:35:37;13.17;;;7.47;;
39772;SDS011;25451;51.960;6.250;2023-05-14T03:38:03;13.47;;;7.70;;
39772;SDS011;25451;51.960;6.250;2023-05-14T03:40:28;15.60;;;7.90;;
39772;SDS011;25451;51.960;6.250;2023-05-14T03:42:54;17.50;;;7.90;;
39772;SDS011;25451;51.960;6.250;2023-05-14T03:45:20;15.63;;;8.20;;
39772;SDS011;25451;51.960;6.250;2023-05-14T03:47:45;16.45;;;8.88;;
39772;SDS011;25451;51.960;6.250;2023-05-14T03:50:10;13.60;;;8.63;;
39772;SDS011;25451;51.960;6.250;2023-05-14T03:52:36;16.53;;;9.10;;
39772;SDS011;25451;51.960;6.250;2023-05-14T03:55:01;16.67;;;8.83;;
39772;SDS011;25451;51.960;6.250;2023-05-14T03:57:26;16.97;;;9.17;;
39772;SDS011;25451;51.960;6.250;2023-05-14T03:59:52;14.20;;;8.10;;
39772;SDS011;25451;51.960;6.250;2023-05-14T04:02:17;15.90;;;8.30;;
39772;SDS011;25451;51.960;6.250;2023-05-14T04:04:42;12.73;;;8.07;;
39772;SDS011;25451;51.960;6.250;2023-05-14T04:07:08;13.73;;;8.37;;
39772;SDS011;25451;51.960;6.250;2023-05-14T04:09:33;15.33;;;8.67;;
39772;SDS011;25451;51.960;6.250;2023-05-14T04:11:58;13.83;;;8.20;;
39772;SDS011;25451;51.960;6.250;2023-05-14T04:14:24;13.90;;;7.93;;
39772;SDS011;25451;51.960;6.250;2023-05-14T04:16:49;14.37;;;8.20;;
39772;SDS011;25451;51.960;6.250;2023-05-14T04:19:14;16.17;;;9.27;;
39772;SDS011;25451;51.960;6.250;2023-05-14T04:21:40;15.43;;;8.67;;
39772;SDS011;25451;51.960;6.250;2023-05-14T04:24:05;15.10;;;8.67;;
39772;SDS011;25451;51.960;6.250;2023-05-14T04:26:31;15.93;;;8.57;;
39772;SDS011;25451;51.960;6.250;2023-05-14T04:28:56;14.50;;;8.87;;
39772;SDS011;25451;51.960;6.250;2023-05-14T04:31:22;12.35;;;8.23;;
39772;SDS011;25451;51.960;6.250;2023-05-14T04:33:47;14.37;;;8.30;;
39772;SDS011;25451;51.960;6.250;2023-05-14T04:36:13;15.67;;;8.97;;
39772;SDS011;25451;51.960;6.250;2023-05-14T04:38:38;13.00;;;8.33;;
39772;SDS011;25451;51.960;6.250;2023-05-14T04:41:03;15.90;;;8.93;;
39772;SDS011;25451;51.960;6.250;2023-05-14T04:43:30;14.65;;;8.88;;
39772;SDS011;25451;51.960;6.250;2023-05-14T04:45:55;16.47;;;9.00;;
39772;SDS011;25451;51.960;6.250;2023-05-14T04:48:20;15.83;;;8.47;;
39772;SDS011;25451;51.960;6.250;2023-05-14T04:50:46;15.70;;;8.48;;
39772;SDS011;25451;51.960;6.250;2023-05-14T04:53:11;14.80;;;8.40;;
39772;SDS011;25451;51.960;6.250;2023-05-14T04:55:37;16.83;;;8.47;;
39772;SDS011;25451;51.960;6.250;2023-05-14T04:58:02;14.43;;;7.95;;
39772;SDS011;25451;51.960;6.250;2023-05-14T05:00:28;15.45;;;8.60;;
39772;SDS011;25451;51.960;6.250;2023-05-14T05:02:53;15.23;;;8.63;;
39772;SDS011;25451;51.960;6.250;2023-05-14T05:05:19;18.00;;;9.13;;
39772;SDS011;25451;51.960;6.250;2023-05-14T05:07:44;14.35;;;8.85;;
39772;SDS011;25451;51.960;6.250;2023-05-14T05:10:10;14.57;;;8.70;;
39772;SDS011;25451;51.960;6.250;2023-05-14T05:12:35;15.07;;;8.93;;
39772;SDS011;25451;51.960;6.250;2023-05-14T05:15:00;17.30;;;8.67;;
39772;SDS011;25451;51.960;6.250;2023-05-14T05:17:28;17.20;;;9.25;;
39772;SDS011;25451;51.960;6.250;2023-05-14T05:19:53;17.70;;;9.17;;
39772;SDS011;25451;51.960;6.250;2023-05-14T05:22:19;15.48;;;9.32;;
39772;SDS011;25451;51.960;6.250;2023-05-14T05:24:44;15.23;;;9.00;;
39772;SDS011;25451;51.960;6.250;2023-05-14T05:27:09;18.07;;;8.87;;
39772;SDS011;25451;51.960;6.250;2023-05-14T05:29:35;16.73;;;9.63;;
39772;SDS011;25451;51.960;6.250;2023-05-14T05:32:00;17.43;;;9.17;;
39772;SDS011;25451;51.960;6.250;2023-05-14T05:34:25;20.57;;;9.47;;
39772;SDS011;25451;51.960;6.250;2023-05-14T05:36:51;15.18;;;9.20;;
39772;SDS011;25451;51.960;6.250;2023-05-14T05:39:16;19.70;;;9.43;;
39772;SDS011;25451;51.960;6.250;2023-05-14T05:41:42;16.00;;;8.77;;
39772;SDS011;25451;51.960;6.250;2023-05-14T05:44:08;18.70;;;9.55;;
39772;SDS011;25451;51.960;6.250;2023-05-14T05:46:33;20.20;;;9.17;;
39772;SDS011;25451;51.960;6.250;2023-05-14T05:48:59;16.83;;;9.20;;
39772;SDS011;25451;51.960;6.250;2023-05-14T05:51:24;15.60;;;8.80;;
39772;SDS011;25451;51.960;6.250;2023-05-14T05:53:50;16.63;;;8.93;;
39772;SDS011;25451;51.960;6.250;2023-05-14T05:56:15;20.20;;;8.77;;
39772;SDS011;25451;51.960;6.250;2023-05-14T05:58:40;17.37;;;8.50;;
39772;SDS011;25451;51.960;6.250;2023-05-14T06:01:06;22.30;;;8.97;;
39772;SDS011;25451;51.960;6.250;2023-05-14T06:03:31;19.10;;;9.57;;
39772;SDS011;25451;51.960;6.250;2023-05-14T06:05:56;18.70;;;8.83;;
39772;SDS011;25451;51.960;6.250;2023-05-14T06:08:21;17.20;;;9.27;;
39772;SDS011;25451;51.960;6.250;2023-05-14T06:10:47;15.30;;;8.77;;
39772;SDS011;25451;51.960;6.250;2023-05-14T06:13:12;18.10;;;9.17;;
39772;SDS011;25451;51.960;6.250;2023-05-14T06:15:37;14.85;;;9.27;;
39772;SDS011;25451;51.960;6.250;2023-05-14T06:18:03;16.70;;;8.77;;
39772;SDS011;25451;51.960;6.250;2023-05-14T06:20:28;16.10;;;8.17;;
39772;SDS011;25451;51.960;6.250;2023-05-14T06:22:53;16.07;;;8.90;;
39772;SDS011;25451;51.960;6.250;2023-05-14T06:25:19;15.67;;;8.70;;
39772;SDS011;25451;51.960;6.250;2023-05-14T06:27:44;16.37;;;9.17;;
39772;SDS011;25451;51.960;6.250;2023-05-14T06:30:09;17.37;;;9.00;;
39772;SDS011;25451;51.960;6.250;2023-05-14T06:32:35;18.00;;;9.25;;
39772;SDS011;25451;51.960;6.250;2023-05-14T06:35:01;17.57;;;9.17;;
39772;SDS011;25451;51.960;6.250;2023-05-14T06:37:26;15.83;;;9.27;;
39772;SDS011;25451;51.960;6.250;2023-05-14T06:39:51;16.80;;;8.63;;
39772;SDS011;25451;51.960;6.250;2023-05-14T06:42:17;17.23;;;8.93;;
39772;SDS011;25451;51.960;6.250;2023-05-14T06:44:43;14.80;;;9.00;;
39772;SDS011;25451;51.960;6.250;2023-05-14T06:47:08;16.42;;;9.13;;
39772;SDS011;25451;51.960;6.250;2023-05-14T06:49:34;14.40;;;8.93;;
39772;SDS011;25451;51.960;6.250;2023-05-14T06:52:00;17.58;;;9.10;;
39772;SDS011;25451;51.960;6.250;2023-05-14T06:54:25;16.67;;;9.30;;
39772;SDS011;25451;51.960;6.250;2023-05-14T06:56:51;15.40;;;9.50;;
39772;SDS011;25451;51.960;6.250;2023-05-14T06:59:16;15.10;;;8.87;;
39772;SDS011;25451;51.960;6.250;2023-05-14T07:01:41;14.47;;;8.87;;
39772;SDS011;25451;51.960;6.250;2023-05-14T07:04:07;16.10;;;8.90;;
39772;SDS011;25451;51.960;6.250;2023-05-14T07:06:32;15.15;;;8.55;;
39772;SDS011;25451;51.960;6.250;2023-05-14T07:08:58;15.20;;;9.27;;
39772;SDS011;25451;51.960;6.250;2023-05-14T07:11:23;17.37;;;8.87;;
39772;SDS011;25451;51.960;6.250;2023-05-14T07:13:48;16.40;;;9.03;;
39772;SDS011;25451;51.960;6.250;2023-05-14T07:16:14;17.67;;;9.40;;
39772;SDS011;25451;51.960;6.250;2023-05-14T07:18:39;16.67;;;8.93;;
39772;SDS011;25451;51.960;6.250;2023-05-14T07:21:04;15.27;;;8.32;;
39772;SDS011;25451;51.960;6.250;2023-05-14T07:23:31;14.57;;;8.37;;
39772;SDS011;25451;51.960;6.250;2023-05-14T07:25:56;16.45;;;9.13;;
39772;SDS011;25451;51.960;6.250;2023-05-14T07:28:22;15.90;;;8.67;;
39772;SDS011;25451;51.960;6.250;2023-05-14T07:30:47;16.60;;;9.13;;
39772;SDS011;25451;51.960;6.250;2023-05-14T07:33:12;15.53;;;9.07;;
39772;SDS011;25451;51.960;6.250;2023-05-14T07:35:38;14.70;;;8.70;;
39772;SDS011;25451;51.960;6.250;2023-05-14T07:38:03;13.10;;;8.63;;
39772;SDS011;25451;51.960;6.250;2023-05-14T07:40:29;14.50;;;8.77;;
39772;SDS011;25451;51.960;6.250;2023-05-14T07:42:55;15.00;;;8.73;;
39772;SDS011;25451;51.960;6.250;2023-05-14T07:45:20;13.43;;;8.32;;
39772;SDS011;25451;51.960;6.250;2023-05-14T07:47:45;15.20;;;8.93;;
39772;SDS011;25451;51.960;6.250;2023-05-14T07:50:11;14.87;;;8.67;;
39772;SDS011;25451;51.960;6.250;2023-05-14T07:52:36;14.57;;;8.83;;
39772;SDS011;25451;51.960;6.250;2023-05-14T07:55:02;18.57;;;8.87;;
39772;SDS011;25451;51.960;6.250;2023-05-14T07:57:27;13.27;;;8.77;;
39772;SDS011;25451;51.960;6.250;2023-05-14T07:59:53;15.13;;;9.17;;
39772;SDS011;25451;51.960;6.250;2023-05-14T08:02:18;17.20;;;8.67;;
39772;SDS011;25451;51.960;6.250;2023-05-14T08:04:44;15.17;;;8.60;;
39772;SDS011;25451;51.960;6.250;2023-05-14T08:07:09;14.13;;;8.55;;
39772;SDS011;25451;51.960;6.250;2023-05-14T08:09:35;16.47;;;8.73;;
39772;SDS011;25451;51.960;6.250;2023-05-14T08:12:00;14.73;;;8.70;;
39772;SDS011;25451;51.960;6.250;2023-05-14T08:14:26;12.93;;;8.43;;
39772;SDS011;25451;51.960;6.250;2023-05-14T08:16:51;13.10;;;8.33;;
39772;SDS011;25451;51.960;6.250;2023-05-14T08:19:17;13.95;;;8.43;;
39772;SDS011;25451;51.960;6.250;2023-05-14T08:21:42;16.00;;;8.10;;
39772;SDS011;25451;51.960;6.250;2023-05-14T08:24:08;14.60;;;8.80;;
39772;SDS011;25451;51.960;6.250;2023-05-14T08:26:33;15.53;;;7.73;;
39772;SDS011;25451;51.960;6.250;2023-05-14T08:28:58;17.93;;;8.60;;
39772;SDS011;25451;51.960;6.250;2023-05-14T08:31:24;14.90;;;8.07;;
39772;SDS011;25451;51.960;6.250;2023-05-14T08:33:49;15.02;;;8.30;;
39772;SDS011;25451;51.960;6.250;2023-05-14T08:36:14;15.50;;;8.60;;
39772;SDS011;25451;51.960;6.250;2023-05-14T08:38:40;13.87;;;8.77;;
39772;SDS011;25451;51.960;6.250;2023-05-14T08:41:06;16.38;;;8.40;;
39772;SDS011;25451;51.960;6.250;2023-05-14T08:43:36;14.43;;;8.07;;
39772;SDS011;25451;51.960;6.250;2023-05-14T08:46:10;15.07;;;8.57;;
39772;SDS011;25451;51.960;6.250;2023-05-14T08:48:38;16.30;;;8.38;;
39772;SDS011;25451;51.960;6.250;2023-05-14T08:51:06;14.88;;;8.55;;
39772;SDS011;25451;51.960;6.250;2023-05-14T08:53:32;17.27;;;8.73;;
39772;SDS011;25451;51.960;6.250;2023-05-14T08:55:57;15.57;;;8.57;;
39772;SDS011;25451;51.960;6.250;2023-05-14T08:58:25;13.45;;;8.40;;
39772;SDS011;25451;51.960;6.250;2023-05-14T09:00:52;12.18;;;8.13;;
39772;SDS011;25451;51.960;6.250;2023-05-14T09:03:18;14.23;;;8.10;;
39772;SDS011;25451;51.960;6.250;2023-05-14T09:05:45;12.93;;;8.18;;
39772;SDS011;25451;51.960;6.250;2023-05-14T09:08:12;14.68;;;8.40;;
39772;SDS011;25451;51.960;6.250;2023-05-14T09:10:37;14.88;;;8.15;;
39772;SDS011;25451;51.960;6.250;2023-05-14T09:13:04;10.60;;;7.47;;
39772;SDS011;25451;51.960;6.250;2023-05-14T09:15:29;12.60;;;7.50;;
39772;SDS011;25451;51.960;6.250;2023-05-14T09:17:55;12.27;;;7.17;;
39772;SDS011;25451;51.960;6.250;2023-05-14T09:20:20;15.03;;;8.40;;
39772;SDS011;25451;51.960;6.250;2023-05-14T09:22:47;12.73;;;7.97;;
39772;SDS011;25451;51.960;6.250;2023-05-14T09:25:17;14.07;;;8.07;;
39772;SDS011;25451;51.960;6.250;2023-05-14T09:27:42;11.87;;;7.70;;
39772;SDS011;25451;51.960;6.250;2023-05-14T09:30:14;14.05;;;8.23;;
39772;SDS011;25451;51.960;6.250;2023-05-14T09:32:40;15.37;;;7.53;;
39772;SDS011;25451;51.960;6.250;2023-05-14T09:35:21;12.13;;;6.88;;
39772;SDS011;25451;51.960;6.250;2023-05-14T09:37:48;12.80;;;7.85;;
39772;SDS011;25451;51.960;6.250;2023-05-14T09:40:18;13.45;;;7.75;;
39772;SDS011;25451;51.960;6.250;2023-05-14T09:42:45;10.77;;;7.20;;
39772;SDS011;25451;51.960;6.250;2023-05-14T09:45:13;13.13;;;7.65;;
39772;SDS011;25451;51.960;6.250;2023-05-14T09:47:38;13.57;;;8.10;;
39772;SDS011;25451;51.960;6.250;2023-05-14T09:50:04;12.67;;;7.93;;
39772;SDS011;25451;51.960;6.250;2023-05-14T09:52:30;10.63;;;7.25;;
39772;SDS011;25451;51.960;6.250;2023-05-14T09:54:56;13.00;;;7.53;;
39772;SDS011;25451;51.960;6.250;2023-05-14T09:57:21;10.50;;;7.20;;
39772;SDS011;25451;51.960;6.250;2023-05-14T09:59:47;10.82;;;7.30;;
39772;SDS011;25451;51.960;6.250;2023-05-14T10:02:19;13.70;;;7.53;;
39772;SDS011;25451;51.960;6.250;2023-05-14T10:04:48;10.67;;;6.70;;
39772;SDS011;25451;51.960;6.250;2023-05-14T10:07:15;11.45;;;6.85;;
39772;SDS011;25451;51.960;6.250;2023-05-14T10:09:42;12.18;;;6.88;;
39772;SDS011;25451;51.960;6.250;2023-05-14T10:12:10;8.98;;;6.60;;
39772;SDS011;25451;51.960;6.250;2023-05-14T10:14:37;9.20;;;5.80;;
39772;SDS011;25451;51.960;6.250;2023-05-14T10:17:05;9.35;;;5.20;;
39772;SDS011;25451;51.960;6.250;2023-05-14T10:19:32;8.75;;;6.07;;
39772;SDS011;25451;51.960;6.250;2023-05-14T10:22:03;10.75;;;5.82;;
39772;SDS011;25451;51.960;6.250;2023-05-14T10:24:30;8.88;;;5.50;;
39772;SDS011;25451;51.960;6.250;2023-05-14T10:26:57;10.27;;;5.90;;
39772;SDS011;25451;51.960;6.250;2023-05-14T10:29:32;9.48;;;5.50;;
39772;SDS011;25451;51.960;6.250;2023-05-14T10:31:59;7.20;;;5.63;;
39772;SDS011;25451;51.960;6.250;2023-05-14T10:34:42;8.60;;;5.78;;
39772;SDS011;25451;51.960;6.250;2023-05-14T10:37:19;7.55;;;5.00;;
39772;SDS011;25451;51.960;6.250;2023-05-14T10:42:18;11.40;;;5.40;;
39772;SDS011;25451;51.960;6.250;2023-05-14T10:44:55;7.57;;;4.77;;
39772;SDS011;25451;51.960;6.250;2023-05-14T10:47:23;7.28;;;5.20;;
39772;SDS011;25451;51.960;6.250;2023-05-14T10:49:51;8.15;;;4.93;;
39772;SDS011;25451;51.960;6.250;2023-05-14T10:52:18;6.68;;;4.45;;
39772;SDS011;25451;51.960;6.250;2023-05-14T10:54:48;7.00;;;4.30;;
39772;SDS011;25451;51.960;6.250;2023-05-14T10:57:18;9.03;;;4.77;;
39772;SDS011;25451;51.960;6.250;2023-05-14T10:59:45;6.60;;;4.63;;
39772;SDS011;25451;51.960;6.250;2023-05-14T11:02:18;8.00;;;4.57;;
39772;SDS011;25451;51.960;6.250;2023-05-14T11:04:56;6.57;;;4.15;;
39772;SDS011;25451;51.960;6.250;2023-05-14T11:07:23;8.23;;;4.10;;
39772;SDS011;25451;51.960;6.250;2023-05-14T11:09:53;6.90;;;4.17;;
39772;SDS011;25451;51.960;6.250;2023-05-14T11:12:26;7.45;;;3.83;;
39772;SDS011;25451;51.960;6.250;2023-05-14T11:14:52;7.70;;;3.80;;
39772;SDS011;25451;51.960;6.250;2023-05-14T11:17:18;7.65;;;3.50;;
39772;SDS011;25451;51.960;6.250;2023-05-14T11:19:43;9.30;;;4.47;;
39772;SDS011;25451;51.960;6.250;2023-05-14T11:22:09;6.38;;;4.13;;
39772;SDS011;25451;51.960;6.250;2023-05-14T11:24:37;5.47;;;3.67;;
39772;SDS011;25451;51.960;6.250;2023-05-14T11:27:03;4.75;;;3.28;;
39772;SDS011;25451;51.960;6.250;2023-05-14T11:29:29;4.67;;;2.83;;
39772;SDS011;25451;51.960;6.250;2023-05-14T11:31:54;5.87;;;3.20;;
39772;SDS011;25451;51.960;6.250;2023-05-14T11:34:20;10.17;;;3.40;;
39772;SDS011;25451;51.960;6.250;2023-05-14T11:36:45;9.67;;;3.40;;
39772;SDS011;25451;51.960;6.250;2023-05-14T11:39:16;7.97;;;3.30;;
39772;SDS011;25451;51.960;6.250;2023-05-14T11:41:43;6.13;;;3.50;;
39772;SDS011;25451;51.960;6.250;2023-05-14T11:44:09;6.55;;;3.50;;
39772;SDS011;25451;51.960;6.250;2023-05-14T11:46:35;6.60;;;3.60;;
39772;SDS011;25451;51.960;6.250;2023-05-14T11:49:02;6.43;;;3.83;;
39772;SDS011;25451;51.960;6.250;2023-05-14T11:51:28;6.10;;;3.10;;
39772;SDS011;25451;51.960;6.250;2023-05-14T11:53:53;5.63;;;3.40;;
39772;SDS011;25451;51.960;6.250;2023-05-14T11:56:20;6.37;;;3.07;;
39772;SDS011;25451;51.960;6.250;2023-05-14T11:58:47;5.97;;;2.67;;
39772;SDS011;25451;51.960;6.250;2023-05-14T12:01:13;5.82;;;2.60;;
39772;SDS011;25451;51.960;6.250;2023-05-14T12:03:39;5.33;;;3.60;;
39772;SDS011;25451;51.960;6.250;2023-05-14T12:06:06;6.93;;;3.63;;
39772;SDS011;25451;51.960;6.250;2023-05-14T12:08:34;8.32;;;3.65;;
39772;SDS011;25451;51.960;6.250;2023-05-14T12:11:01;5.22;;;3.25;;
39772;SDS011;25451;51.960;6.250;2023-05-14T12:13:30;6.25;;;3.22;;
39772;SDS011;25451;51.960;6.250;2023-05-14T12:15:56;6.47;;;2.93;;
39772;SDS011;25451;51.960;6.250;2023-05-14T12:18:24;4.68;;;2.95;;
39772;SDS011;25451;51.960;6.250;2023-05-14T12:20:52;6.95;;;3.03;;
39772;SDS011;25451;51.960;6.250;2023-05-14T12:23:26;5.07;;;3.10;;
39772;SDS011;25451;51.960;6.250;2023-05-14T12:25:53;4.35;;;3.00;;
39772;SDS011;25451;51.960;6.250;2023-05-14T12:28:18;9.43;;;3.00;;
39772;SDS011;25451;51.960;6.250;2023-05-14T12:30:45;4.03;;;2.53;;
39772;SDS011;25451;51.960;6.250;2023-05-14T12:33:11;3.75;;;2.45;;
39772;SDS011;25451;51.960;6.250;2023-05-14T12:35:37;4.40;;;2.40;;
39772;SDS011;25451;51.960;6.250;2023-05-14T12:38:03;4.50;;;2.90;;
39772;SDS011;25451;51.960;6.250;2023-05-14T12:40:28;4.17;;;2.60;;
39772;SDS011;25451;51.960;6.250;2023-05-14T12:42:54;5.87;;;3.20;;
39772;SDS011;25451;51.960;6.250;2023-05-14T12:45:19;5.88;;;3.50;;
39772;SDS011;25451;51.960;6.250;2023-05-14T12:47:45;5.40;;;3.20;;
39772;SDS011;25451;51.960;6.250;2023-05-14T12:50:10;7.67;;;3.17;;
39772;SDS011;25451;51.960;6.250;2023-05-14T12:52:36;3.73;;;2.67;;
39772;SDS011;25451;51.960;6.250;2023-05-14T12:55:01;5.40;;;2.40;;
39772;SDS011;25451;51.960;6.250;2023-05-14T12:57:26;4.67;;;2.50;;
39772;SDS011;25451;51.960;6.250;2023-05-14T12:59:53;4.22;;;2.60;;
39772;SDS011;25451;51.960;6.250;2023-05-14T13:02:19;4.93;;;3.30;;
39772;SDS011;25451;51.960;6.250;2023-05-14T13:04:44;6.30;;;3.30;;
39772;SDS011;25451;51.960;6.250;2023-05-14T13:07:09;5.63;;;3.70;;
39772;SDS011;25451;51.960;6.250;2023-05-14T13:09:35;8.40;;;3.60;;
39772;SDS011;25451;51.960;6.250;2023-05-14T13:12:00;8.40;;;3.73;;
39772;SDS011;25451;51.960;6.250;2023-05-14T13:14:25;7.33;;;3.50;;
39772;SDS011;25451;51.960;6.250;2023-05-14T13:16:51;5.10;;;3.23;;
39772;SDS011;25451;51.960;6.250;2023-05-14T13:19:16;6.50;;;3.30;;
39772;SDS011;25451;51.960;6.250;2023-05-14T13:21:41;6.30;;;3.03;;
39772;SDS011;25451;51.960;6.250;2023-05-14T13:24:07;9.57;;;3.40;;
39772;SDS011;25451;51.960;6.250;2023-05-14T13:26:34;5.25;;;3.25;;
39772;SDS011;25451;51.960;6.250;2023-05-14T13:29:00;7.82;;;2.92;;
39772;SDS011;25451;51.960;6.250;2023-05-14T13:31:25;5.87;;;2.83;;
39772;SDS011;25451;51.960;6.250;2023-05-14T13:33:50;6.67;;;2.70;;
39772;SDS011;25451;51.960;6.250;2023-05-14T13:36:15;7.83;;;2.60;;
39772;SDS011;25451;51.960;6.250;2023-05-14T13:38:41;6.33;;;2.90;;
39772;SDS011;25451;51.960;6.250;2023-05-14T13:41:06;5.43;;;2.83;;
39772;SDS011;25451;51.960;6.250;2023-05-14T13:43:32;6.47;;;3.03;;
39772;SDS011;25451;51.960;6.250;2023-05-14T13:45:59;4.68;;;2.78;;
39772;SDS011;25451;51.960;6.250;2023-05-14T13:48:28;4.65;;;3.03;;
39772;SDS011;25451;51.960;6.250;2023-05-14T13:50:54;5.03;;;3.10;;
39772;SDS011;25451;51.960;6.250;2023-05-14T13:53:20;6.40;;;3.03;;
39772;SDS011;25451;51.960;6.250;2023-05-14T13:55:47;5.85;;;3.00;;
39772;SDS011;25451;51.960;6.250;2023-05-14T13:58:13;4.77;;;3.13;;
39772;SDS011;25451;51.960;6.250;2023-05-14T14:00:38;4.50;;;2.90;;
39772;SDS011;25451;51.960;6.250;2023-05-14T14:03:04;5.80;;;3.00;;
39772;SDS011;25451;51.960;6.250;2023-05-14T14:05:29;6.37;;;3.30;;
39772;SDS011;25451;51.960;6.250;2023-05-14T14:07:55;4.80;;;3.13;;
39772;SDS011;25451;51.960;6.250;2023-05-14T14:10:21;4.03;;;3.00;;
39772;SDS011;25451;51.960;6.250;2023-05-14T14:12:46;6.23;;;2.90;;
39772;SDS011;25451;51.960;6.250;2023-05-14T14:15:12;5.30;;;3.08;;
39772;SDS011;25451;51.960;6.250;2023-05-14T14:17:37;4.73;;;3.07;;
39772;SDS011;25451;51.960;6.250;2023-05-14T14:20:05;6.80;;;3.55;;
39772;SDS011;25451;51.960;6.250;2023-05-14T14:22:34;5.57;;;3.17;;
39772;SDS011;25451;51.960;6.250;2023-05-14T14:24:59;5.90;;;3.47;;
39772;SDS011;25451;51.960;6.250;2023-05-14T14:27:25;7.25;;;3.30;;
39772;SDS011;25451;51.960;6.250;2023-05-14T14:29:51;4.33;;;3.07;;
39772;SDS011;25451;51.960;6.250;2023-05-14T14:32:16;7.90;;;3.37;;
39772;SDS011;25451;51.960;6.250;2023-05-14T14:34:41;8.77;;;3.23;;
39772;SDS011;25451;51.960;6.250;2023-05-14T14:37:06;5.87;;;3.07;;
39772;SDS011;25451;51.960;6.250;2023-05-14T14:39:32;6.53;;;3.23;;
39772;SDS011;25451;51.960;6.250;2023-05-14T14:41:57;5.60;;;3.17;;